İstanbul, Turkey

10:14 AM EEST on March 30, 2015 (GMT +0300)
IISTANBU28 | | Change Station
CLOSE
Current Station
Personal Weather Station
Location: Istinye, Istanbul
Elevation: 345 ft
Nearby Weather Stations

Elev 345 ft 41.11 °N, 29.04 °E | Updated 10 minutes ago

Mostly Cloudy
Mostly Cloudy
51.6 °F
Feels Like 51.6 °F
N
4.0
Wind Variable Wind from South
Gusts 7.0 mph

Today
High -- | Low -- °F
--% Chance of Precip.
Yesterday
High -- | Low -- °F
Precip. -- in
6:51 AM 7:26 PM
Waxing Gibbous, 77% visible
Pressure 29.83 in
Visibility 6.2 miles
Clouds Scattered Clouds 1000 ft
Mostly Cloudy 3000 ft
Dew Point 50 °F
Humidity 96%
Rainfall -999.00 in
Snow Depth Not available.
UV 0.3 out of 12
Pollen Not available.
Air Quality Not available.
Flu Activity Not available.
METAR LTBA 300650Z 22003KT 180V250 9999 SCT010 BKN030 12/09 Q1010 NOSIG

More Conditions Fewer Conditions

Pressure 29.83 in
Visibility 6.2 miles
Clouds Scattered Clouds 1000 ft
Mostly Cloudy 3000 ft
Dew Point 50 °F
Humidity 96%
Rainfall -999.00 in
Snow Depth Not available.
UV 0.3 out of 12
Pollen Not available.
Air Quality Not available.
Flu Activity Not available.
METAR LTBA 300650Z 22003KT 180V250 9999 SCT010 BKN030 12/09 Q1010 NOSIG

More Conditions Fewer Conditions

10-Day Weather Forecast

Almanac

Astronomy

Mar. 30, 2015 Rise Set
Actual Time
Civil Twilight
Nautical Twilight
Astronomical Twilight
Moon
Length of Visible Light
Length of Day
Tomorrow will be .
, % of the Moon is Illuminated

Today's Extremes

Country Highs Country Lows

Community

WunderPhotos

Upload Photos

1,809,449 photos uploaded!

WunderBlogs® & News

Nearby

Air Quality

  Air Quality AQ Index Pollutant
Not available.

Snow Depth

Station Depth Elevation

Earthquake Activity

City Distance Mag. Time & Date
Minimum magnitude displayed is 2.5.

Coastal Water Temperatures

Place Temperature

Stations

Nearby Weather Stations

Station Location Temp. Windchill Dew Point Humidity Wind Precip. Elev Updated Type